Time;durP1;ratioP1;P1;durP2;ratioP2;P2;SDS_P1;SDS_P2;PMS_P1;PMS_P2;Temp;Humidity;BMP_temperature;BMP_pressure;BME280_temperature;BME280_humidity;BME280_pressure;Samples;Min_cycle;Max_cycle;Signal;HPM_P1;HPM_P2
2023/03/10 00:01:52;;;;;;;;;;;20.70;49.50;;;;;;1518567;77;1143;-59
2023/03/10 00:03:54;;;;;;;;;;;20.70;49.50;;;;;;1531194;77;1532;-62
2023/03/10 00:05:57;;;;;;;;;;;20.60;49.40;;;;;;1514395;77;746;-61
2023/03/10 00:07:58;;;;;;;;;;;20.70;49.40;;;;;;1525856;77;716;-60
2023/03/10 00:10:00;;;;;;;;;;;20.70;49.50;;;;;;1530736;77;769;-60
2023/03/10 00:12:02;;;;;;;;;;;20.70;49.50;;;;;;1524863;77;1179;-59
2023/03/10 00:14:04;;;;;;;;;;;20.70;49.50;;;;;;1521953;77;746;-60
2023/03/10 00:16:06;;;;;;;;;;;20.70;49.50;;;;;;1525313;77;744;-60
2023/03/10 00:18:08;;;;;;;;;;;20.60;49.40;;;;;;1522284;77;1945;-61
2023/03/10 00:20:10;;;;;;;;;;;20.60;49.40;;;;;;1529254;77;810;-60
2023/03/10 00:22:12;;;;;;;;;;;20.70;49.50;;;;;;1487715;79;1153;-59
2023/03/10 00:24:14;;;;;;;;;;;20.70;49.50;;;;;;1519405;77;658;-59
2023/03/10 00:26:16;;;;;;;;;;;20.60;49.40;;;;;;1527322;77;730;-60
2023/03/10 00:28:18;;;;;;;;;;;20.60;49.40;;;;;;1526833;77;777;-62
2023/03/10 00:30:20;;;;;;;;;;;20.60;49.40;;;;;;1515970;77;697;-60
2023/03/10 00:32:22;;;;;;;;;;;20.70;49.60;;;;;;1533248;77;1365;-59
2023/03/10 00:34:24;;;;;;;;;;;20.60;49.40;;;;;;1517071;77;795;-59
2023/03/10 00:36:26;;;;;;;;;;;20.60;49.60;;;;;;1521006;77;938;-58
2023/03/10 00:38:28;;;;;;;;;;;20.60;49.50;;;;;;1509242;78;1938;-58
2023/03/10 00:40:30;;;;;;;;;;;20.60;49.50;;;;;;1503552;78;788;-60
2023/03/10 00:42:32;;;;;;;;;;;20.60;49.50;;;;;;1503122;78;1197;-58
2023/03/10 00:44:34;;;;;;;;;;;20.60;49.40;;;;;;1510486;78;661;-59
2023/03/10 00:46:37;;;;;;;;;;;20.60;49.50;;;;;;1512265;78;1538;-60
2023/03/10 00:48:39;;;;;;;;;;;20.60;49.50;;;;;;1507307;78;786;-59
2023/03/10 00:50:41;;;;;;;;;;;20.60;49.50;;;;;;1501939;78;739;-60
2023/03/10 00:52:43;;;;;;;;;;;20.60;49.50;;;;;;1497454;78;1129;-61
2023/03/10 00:54:44;;;;;;;;;;;20.60;49.50;;;;;;1508016;78;984;-61
2023/03/10 00:56:46;;;;;;;;;;;20.60;49.60;;;;;;1505757;78;725;-58
2023/03/10 00:58:50;;;;;;;;;;;20.60;49.60;;;;;;1510724;78;1929;-60
2023/03/10 01:00:53;;;;;;;;;;;20.50;49.60;;;;;;1502456;78;1355;-60
2023/03/10 01:02:55;;;;;;;;;;;20.60;49.60;;;;;;1504844;78;1133;-60
2023/03/10 01:04:57;;;;;;;;;;;20.50;49.60;;;;;;1512855;78;685;-60
2023/03/10 01:06:59;;;;;;;;;;;20.60;49.60;;;;;;1502151;78;665;-59
2023/03/10 01:09:01;;;;;;;;;;;20.60;49.50;;;;;;1498374;78;768;-58
2023/03/10 01:11:02;;;;;;;;;;;20.60;49.60;;;;;;1502155;78;743;-59
2023/03/10 01:13:04;;;;;;;;;;;20.60;49.60;;;;;;1512869;78;1151;-58
2023/03/10 01:15:07;;;;;;;;;;;20.60;49.50;;;;;;1513581;78;1373;-58
2023/03/10 01:17:09;;;;;;;;;;;20.60;49.50;;;;;;1512455;78;699;-60
2023/03/10 01:19:11;;;;;;;;;;;20.60;49.60;;;;;;1507305;78;1948;-59
2023/03/10 01:21:17;;;;;;;;;;;20.60;49.60;;;;;;1507940;78;1102;-58
2023/03/10 01:23:19;;;;;;;;;;;20.60;49.50;;;;;;1509872;78;805;-60
2023/03/10 01:25:21;;;;;;;;;;;20.60;49.50;;;;;;1509290;78;729;-61
2023/03/10 01:27:23;;;;;;;;;;;20.60;49.50;;;;;;1503294;78;686;-62
2023/03/10 01:29:25;;;;;;;;;;;20.60;49.50;;;;;;1497049;78;1569;-60
2023/03/10 01:31:27;;;;;;;;;;;20.60;49.50;;;;;;1501545;78;1151;-60
2023/03/10 01:33:29;;;;;;;;;;;20.60;49.50;;;;;;1508293;78;674;-59
2023/03/10 01:35:31;;;;;;;;;;;20.60;49.50;;;;;;1499459;78;776;-58
2023/03/10 01:37:32;;;;;;;;;;;20.60;49.50;;;;;;1511275;77;1107;-60
2023/03/10 01:39:34;;;;;;;;;;;20.60;49.40;;;;;;1509755;78;1932;-61
2023/03/10 01:41:39;;;;;;;;;;;20.60;49.50;;;;;;1503723;78;1184;-60
2023/03/10 01:43:41;;;;;;;;;;;20.60;49.50;;;;;;1506660;78;1580;-62
2023/03/10 01:45:45;;;;;;;;;;;20.60;49.50;;;;;;1505953;78;653;-58
2023/03/10 01:47:47;;;;;;;;;;;20.60;49.50;;;;;;1505089;78;633;-59
2023/03/10 01:49:49;;;;;;;;;;;20.60;49.50;;;;;;1496252;78;679;-60
2023/03/10 01:51:52;;;;;;;;;;;20.60;49.50;;;;;;1509151;78;1133;-60
2023/03/10 01:53:54;;;;;;;;;;;20.60;49.50;;;;;;1498962;78;620;-59
2023/03/10 01:56:00;;;;;;;;;;;20.60;49.50;;;;;;1501872;78;896;-59
2023/03/10 01:58:02;;;;;;;;;;;20.60;49.50;;;;;;1494691;78;1489;-58
2023/03/10 02:00:11;;;;;;;;;;;20.60;49.50;;;;;;1493487;78;1948;-58
2023/03/10 02:02:08;;;;;;;;;;;20.60;49.50;;;;;;1501556;78;1614;-60
2023/03/10 02:04:17;;;;;;;;;;;20.50;49.50;;;;;;1508793;78;747;-59
2023/03/10 02:06:20;;;;;;;;;;;20.50;49.50;;;;;;1507369;78;720;-60
2023/03/10 02:08:22;;;;;;;;;;;20.60;49.50;;;;;;1508032;78;711;-59
2023/03/10 02:10:24;;;;;;;;;;;20.60;49.50;;;;;;1495392;78;1632;-60
2023/03/10 02:12:26;;;;;;;;;;;20.60;49.50;;;;;;1493172;78;1145;-59
2023/03/10 02:14:28;;;;;;;;;;;20.60;49.40;;;;;;1508455;78;706;-58
2023/03/10 02:16:29;;;;;;;;;;;20.60;49.50;;;;;;1502984;78;770;-60
2023/03/10 02:18:31;;;;;;;;;;;20.60;49.50;;;;;;1506009;78;768;-60
2023/03/10 02:20:39;;;;;;;;;;;20.60;49.50;;;;;;1506809;78;1970;-58
2023/03/10 02:22:41;;;;;;;;;;;20.60;49.50;;;;;;1505198;78;1978;-60
2023/03/10 02:24:50;;;;;;;;;;;20.60;49.40;;;;;;1506820;78;1310;-59
2023/03/10 02:26:56;;;;;;;;;;;20.60;49.40;;;;;;1492359;78;889;-58
2023/03/10 02:28:58;;;;;;;;;;;20.50;49.40;;;;;;1510142;78;749;-60
2023/03/10 02:31:00;;;;;;;;;;;20.60;49.50;;;;;;1509619;78;760;-58
2023/03/10 02:33:04;;;;;;;;;;;20.60;49.40;;;;;;1510971;78;1082;-59
2023/03/10 02:35:06;;;;;;;;;;;20.50;49.40;;;;;;1501012;78;726;-59
2023/03/10 02:37:09;;;;;;;;;;;20.50;49.40;;;;;;1502239;78;1062;-59
2023/03/10 02:39:11;;;;;;;;;;;20.60;49.50;;;;;;1505466;78;1930;-59
2023/03/10 02:41:14;;;;;;;;;;;20.60;49.40;;;;;;1509868;78;1134;-58
2023/03/10 02:43:17;;;;;;;;;;;20.50;49.50;;;;;;1512059;78;732;-58
2023/03/10 02:45:19;;;;;;;;;;;20.50;49.40;;;;;;1515723;78;772;-60
2023/03/10 02:47:21;;;;;;;;;;;20.50;49.40;;;;;;1507191;78;724;-61
2023/03/10 02:49:23;;;;;;;;;;;20.50;49.40;;;;;;1516547;78;753;-59
2023/03/10 02:51:26;;;;;;;;;;;20.50;49.40;;;;;;1522680;78;1151;-58
2023/03/10 02:53:28;;;;;;;;;;;20.50;49.50;;;;;;1516538;78;1522;-59
2023/03/10 02:55:30;;;;;;;;;;;20.50;49.50;;;;;;1515545;77;813;-58
2023/03/10 02:57:32;;;;;;;;;;;20.50;49.40;;;;;;1508456;78;749;-59
2023/03/10 02:59:34;;;;;;;;;;;20.60;49.40;;;;;;1519566;78;1907;-58
2023/03/10 03:01:35;;;;;;;;;;;20.50;49.40;;;;;;1503446;78;1129;-59
2023/03/10 03:03:37;;;;;;;;;;;20.60;49.40;;;;;;1508924;78;763;-61
2023/03/10 03:05:39;;;;;;;;;;;20.50;49.40;;;;;;1519264;78;691;-59
2023/03/10 03:07:41;;;;;;;;;;;20.50;49.40;;;;;;1518624;78;1540;-60
2023/03/10 03:09:43;;;;;;;;;;;20.50;49.40;;;;;;1515952;78;743;-59
2023/03/10 03:11:45;;;;;;;;;;;20.50;49.40;;;;;;1516356;78;1159;-60
2023/03/10 03:13:47;;;;;;;;;;;20.50;49.40;;;;;;1520474;78;794;-58
2023/03/10 03:15:49;;;;;;;;;;;20.50;49.40;;;;;;1510100;78;714;-60
2023/03/10 03:17:53;;;;;;;;;;;20.50;49.40;;;;;;1513031;78;757;-61
2023/03/10 03:19:54;;;;;;;;;;;20.50;49.40;;;;;;1514533;78;1926;-59
2023/03/10 03:21:56;;;;;;;;;;;20.60;49.40;;;;;;1513680;78;1282;-60
2023/03/10 03:23:58;;;;;;;;;;;20.60;49.40;;;;;;1519460;78;709;-58
2023/03/10 03:26:00;;;;;;;;;;;20.50;49.40;;;;;;1507576;78;700;-59
2023/03/10 03:28:02;;;;;;;;;;;20.60;49.40;;;;;;1510379;78;806;-58
2023/03/10 03:30:08;;;;;;;;;;;20.50;49.40;;;;;;1506668;78;671;-59
2023/03/10 03:32:10;;;;;;;;;;;20.50;49.40;;;;;;1501590;78;1122;-60
2023/03/10 03:34:12;;;;;;;;;;;20.50;49.50;;;;;;1515314;78;747;-59
2023/03/10 03:36:13;;;;;;;;;;;20.50;49.40;;;;;;1511144;78;1523;-60
2023/03/10 03:38:15;;;;;;;;;;;20.50;49.40;;;;;;1501780;78;1006;-60
2023/03/10 03:40:17;;;;;;;;;;;20.50;49.40;;;;;;1493474;78;1937;-58
2023/03/10 03:42:19;;;;;;;;;;;20.50;49.40;;;;;;1505367;78;1203;-58
2023/03/10 03:44:21;;;;;;;;;;;20.50;49.40;;;;;;1511333;78;735;-58
2023/03/10 03:46:23;;;;;;;;;;;20.50;49.40;;;;;;1500599;78;727;-59
2023/03/10 03:48:25;;;;;;;;;;;20.50;49.40;;;;;;1500705;78;792;-60
2023/03/10 03:50:27;;;;;;;;;;;20.50;49.40;;;;;;1512200;78;1545;-60
2023/03/10 03:52:29;;;;;;;;;;;20.60;49.40;;;;;;1510738;78;1132;-59
2023/03/10 03:54:30;;;;;;;;;;;20.50;49.40;;;;;;1508718;78;754;-59
2023/03/10 03:56:32;;;;;;;;;;;20.50;49.40;;;;;;1514400;78;697;-58
2023/03/10 03:58:34;;;;;;;;;;;20.50;49.50;;;;;;1501360;78;697;-59
2023/03/10 04:00:38;;;;;;;;;;;20.50;49.40;;;;;;1494232;78;1932;-61
2023/03/10 04:02:40;;;;;;;;;;;20.50;49.40;;;;;;1514303;77;1725;-59
2023/03/10 04:04:41;;;;;;;;;;;20.50;49.40;;;;;;1502159;78;1528;-59
2023/03/10 04:06:43;;;;;;;;;;;20.50;49.40;;;;;;1504178;78;770;-60
2023/03/10 04:08:45;;;;;;;;;;;20.50;49.40;;;;;;1508597;78;716;-59
2023/03/10 04:10:51;;;;;;;;;;;20.50;49.40;;;;;;1510875;78;747;-59
2023/03/10 04:12:53;;;;;;;;;;;20.50;49.40;;;;;;1503722;78;1120;-59
2023/03/10 04:14:54;;;;;;;;;;;20.50;49.40;;;;;;1500409;78;740;-59
2023/03/10 04:16:56;;;;;;;;;;;20.50;49.40;;;;;;1501021;78;778;-58
2023/03/10 04:18:58;;;;;;;;;;;20.50;49.40;;;;;;1500983;78;781;-60
2023/03/10 04:21:00;;;;;;;;;;;20.50;49.40;;;;;;1495776;78;1928;-59
2023/03/10 04:23:03;;;;;;;;;;;20.50;49.40;;;;;;1503783;78;1098;-58
2023/03/10 04:25:05;;;;;;;;;;;20.50;49.40;;;;;;1503332;78;748;-59
2023/03/10 04:27:08;;;;;;;;;;;20.50;49.40;;;;;;1496835;78;835;-59
2023/03/10 04:29:10;;;;;;;;;;;20.40;49.40;;;;;;1506078;78;761;-61
2023/03/10 04:31:15;;;;;;;;;;;20.50;49.50;;;;;;1509026;78;1144;-59
2023/03/10 04:33:17;;;;;;;;;;;20.40;49.40;;;;;;1499221;78;782;-59
2023/03/10 04:35:19;;;;;;;;;;;20.50;49.50;;;;;;1499297;78;739;-60
2023/03/10 04:37:21;;;;;;;;;;;20.50;49.40;;;;;;1500320;78;744;-59
2023/03/10 04:39:23;;;;;;;;;;;20.50;49.50;;;;;;1502837;78;928;-58
2023/03/10 04:41:25;;;;;;;;;;;20.50;49.50;;;;;;1507620;78;1934;-58
2023/03/10 04:43:27;;;;;;;;;;;20.50;49.40;;;;;;1513811;78;728;-60
2023/03/10 04:45:29;;;;;;;;;;;20.50;49.50;;;;;;1507627;78;771;-59
2023/03/10 04:47:31;;;;;;;;;;;20.40;49.40;;;;;;1500424;78;719;-58
2023/03/10 04:49:33;;;;;;;;;;;20.50;49.40;;;;;;1503790;78;781;-59
2023/03/10 04:51:34;;;;;;;;;;;20.50;49.40;;;;;;1513390;78;1140;-58
2023/03/10 04:53:36;;;;;;;;;;;20.50;49.40;;;;;;1506136;78;804;-59
2023/03/10 04:55:38;;;;;;;;;;;20.50;49.40;;;;;;1508365;78;764;-60
2023/03/10 04:57:40;;;;;;;;;;;20.50;49.40;;;;;;1512691;78;817;-62
2023/03/10 04:59:42;;;;;;;;;;;20.40;49.40;;;;;;1504258;78;1941;-60
2023/03/10 05:01:44;;;;;;;;;;;20.50;49.50;;;;;;1496324;78;1147;-61
2023/03/10 05:03:46;;;;;;;;;;;20.40;49.40;;;;;;1495353;78;767;-58
2023/03/10 05:05:48;;;;;;;;;;;20.50;49.50;;;;;;1512961;78;598;-59
2023/03/10 05:07:50;;;;;;;;;;;20.40;49.40;;;;;;1507774;78;770;-60
2023/03/10 05:09:51;;;;;;;;;;;20.50;49.40;;;;;;1502875;78;745;-59
2023/03/10 05:11:53;;;;;;;;;;;20.40;49.40;;;;;;1508195;78;1152;-59
2023/03/10 05:13:55;;;;;;;;;;;20.40;49.30;;;;;;1504088;78;741;-60
2023/03/10 05:15:57;;;;;;;;;;;20.50;49.40;;;;;;1503953;78;725;-62
2023/03/10 05:17:59;;;;;;;;;;;20.40;49.30;;;;;;1493406;78;1281;-60
2023/03/10 05:20:01;;;;;;;;;;;20.50;49.30;;;;;;1502968;78;1920;-59
2023/03/10 05:22:03;;;;;;;;;;;20.50;49.40;;;;;;1495321;78;1148;-59
2023/03/10 05:24:05;;;;;;;;;;;20.40;49.30;;;;;;1495429;78;753;-59
2023/03/10 05:26:07;;;;;;;;;;;20.50;49.30;;;;;;1511189;78;653;-60
2023/03/10 05:28:09;;;;;;;;;;;20.40;49.30;;;;;;1506693;78;817;-58
2023/03/10 05:30:13;;;;;;;;;;;20.50;49.40;;;;;;1500210;78;811;-60
2023/03/10 05:32:14;;;;;;;;;;;20.50;49.40;;;;;;1501140;78;1143;-60
2023/03/10 05:34:16;;;;;;;;;;;20.50;49.30;;;;;;1504920;78;795;-60
2023/03/10 05:36:18;;;;;;;;;;;20.50;49.40;;;;;;1504257;78;699;-59
2023/03/10 05:38:20;;;;;;;;;;;20.50;49.40;;;;;;1521640;77;667;-58
2023/03/10 05:40:22;;;;;;;;;;;20.40;49.20;;;;;;1512835;78;1943;-60
2023/03/10 05:42:24;;;;;;;;;;;20.40;49.20;;;;;;1562752;76;1173;-60
2023/03/10 05:44:26;;;;;;;;;;;20.40;49.20;;;;;;1551459;76;758;-61
2023/03/10 05:46:28;;;;;;;;;;;20.40;49.20;;;;;;1546703;76;769;-60
2023/03/10 05:48:30;;;;;;;;;;;20.40;49.20;;;;;;1553274;76;829;-60
2023/03/10 05:50:31;;;;;;;;;;;20.50;49.30;;;;;;1546210;76;782;-59
2023/03/10 05:52:40;;;;;;;;;;;20.40;49.20;;;;;;1546911;75;1149;-58
2023/03/10 05:54:42;;;;;;;;;;;20.50;49.30;;;;;;1509300;77;788;-61
2023/03/10 05:56:44;;;;;;;;;;;20.50;49.30;;;;;;1509080;77;794;-59
2023/03/10 05:58:46;;;;;;;;;;;20.40;49.30;;;;;;1507235;77;822;-58
2023/03/10 06:00:48;;;;;;;;;;;20.40;49.20;;;;;;1527537;77;1956;-58
2023/03/10 06:02:50;;;;;;;;;;;20.40;49.20;;;;;;1514544;77;1065;-59
2023/03/10 06:04:52;;;;;;;;;;;20.40;49.20;;;;;;1526852;77;709;-60
2023/03/10 06:06:54;;;;;;;;;;;20.40;49.20;;;;;;1518467;77;927;-59
2023/03/10 06:08:56;;;;;;;;;;;20.40;49.20;;;;;;1533640;77;682;-60
2023/03/10 06:10:58;;;;;;;;;;;20.40;49.20;;;;;;1528048;77;744;-61
2023/03/10 06:13:00;;;;;;;;;;;20.40;49.20;;;;;;1520065;77;1114;-58
2023/03/10 06:15:02;;;;;;;;;;;20.40;49.20;;;;;;1528197;77;1645;-61
2023/03/10 06:17:04;;;;;;;;;;;20.40;49.20;;;;;;1525460;77;677;-59
2023/03/10 06:19:06;;;;;;;;;;;20.40;49.20;;;;;;1518911;77;754;-58
2023/03/10 06:21:08;;;;;;;;;;;20.40;49.10;;;;;;1529537;77;1937;-60
2023/03/10 06:23:10;;;;;;;;;;;20.50;49.20;;;;;;1525745;77;811;-58
2023/03/10 06:25:12;;;;;;;;;;;20.40;49.20;;;;;;1527832;77;695;-60
2023/03/10 06:27:14;;;;;;;;;;;20.50;49.20;;;;;;1531717;77;511;-59
2023/03/10 06:29:16;;;;;;;;;;;20.40;49.10;;;;;;1521059;77;1725;-60
2023/03/10 06:31:19;;;;;;;;;;;20.40;49.20;;;;;;1523198;77;1154;-61
2023/03/10 06:33:20;;;;;;;;;;;20.50;49.20;;;;;;1525710;77;669;-59
2023/03/10 06:35:22;;;;;;;;;;;20.40;49.20;;;;;;1525338;77;691;-61
2023/03/10 06:37:24;;;;;;;;;;;20.40;49.20;;;;;;1518107;77;753;-61
2023/03/10 06:39:27;;;;;;;;;;;20.40;49.20;;;;;;1529258;77;1085;-59
2023/03/10 06:41:29;;;;;;;;;;;20.40;49.10;;;;;;1522658;77;1908;-60
2023/03/10 06:43:32;;;;;;;;;;;20.40;49.20;;;;;;1513517;77;715;-60
2023/03/10 06:45:34;;;;;;;;;;;20.40;49.20;;;;;;1530247;77;728;-59
2023/03/10 06:47:36;;;;;;;;;;;20.40;49.20;;;;;;1524651;77;757;-61
2023/03/10 06:49:38;;;;;;;;;;;20.40;49.20;;;;;;1519370;77;714;-60
2023/03/10 06:51:39;;;;;;;;;;;20.40;49.20;;;;;;1526160;77;1085;-60
2023/03/10 06:53:41;;;;;;;;;;;20.40;49.20;;;;;;1527489;77;730;-61
2023/03/10 06:55:43;;;;;;;;;;;20.40;49.20;;;;;;1528124;77;1329;-61
2023/03/10 06:57:45;;;;;;;;;;;20.40;49.20;;;;;;1520993;77;699;-60
2023/03/10 06:59:47;;;;;;;;;;;20.40;49.20;;;;;;1513714;77;732;-59
2023/03/10 07:01:49;;;;;;;;;;;20.40;49.20;;;;;;1521797;77;1936;-62
2023/03/10 07:03:51;;;;;;;;;;;20.40;49.20;;;;;;1524798;77;743;-62
2023/03/10 07:05:54;;;;;;;;;;;20.40;49.10;;;;;;1522714;77;759;-60
2023/03/10 07:07:56;;;;;;;;;;;20.40;49.10;;;;;;1526377;77;717;-61
2023/03/10 07:09:57;;;;;;;;;;;20.40;49.20;;;;;;1520035;77;1202;-60
2023/03/10 07:11:59;;;;;;;;;;;20.40;49.20;;;;;;1520718;77;1098;-60
2023/03/10 07:14:02;;;;;;;;;;;20.40;49.20;;;;;;1518038;77;741;-60
2023/03/10 07:16:04;;;;;;;;;;;20.40;49.10;;;;;;1524406;77;725;-60
2023/03/10 07:18:06;;;;;;;;;;;20.40;49.20;;;;;;1515287;77;738;-60
2023/03/10 07:20:08;;;;;;;;;;;20.40;49.20;;;;;;1512439;77;736;-60
2023/03/10 07:22:10;;;;;;;;;;;20.40;49.20;;;;;;1517942;77;1937;-62
2023/03/10 07:24:12;;;;;;;;;;;20.40;49.20;;;;;;1515604;77;1531;-61
2023/03/10 07:26:14;;;;;;;;;;;20.40;49.20;;;;;;1519800;77;703;-59
2023/03/10 07:28:16;;;;;;;;;;;20.40;49.20;;;;;;1522045;77;697;-62
2023/03/10 07:30:18;;;;;;;;;;;20.40;49.20;;;;;;1512329;77;779;-62
2023/03/10 07:32:20;;;;;;;;;;;20.40;49.20;;;;;;1523594;77;1127;-61
2023/03/10 07:34:22;;;;;;;;;;;20.40;49.20;;;;;;1527029;77;701;-59
2023/03/10 07:36:24;;;;;;;;;;;20.40;49.20;;;;;;1522954;77;775;-62
2023/03/10 07:38:26;;;;;;;;;;;20.40;49.20;;;;;;1521950;77;1372;-60
2023/03/10 07:40:27;;;;;;;;;;;20.40;49.20;;;;;;1524344;77;1098;-60
2023/03/10 07:42:29;;;;;;;;;;;20.40;49.20;;;;;;1514617;77;1935;-59
2023/03/10 07:44:31;;;;;;;;;;;20.40;49.20;;;;;;1528983;77;740;-60
2023/03/10 07:46:33;;;;;;;;;;;20.40;49.20;;;;;;1521540;77;777;-59
2023/03/10 07:48:35;;;;;;;;;;;20.40;49.20;;;;;;1523695;77;703;-60
2023/03/10 07:50:37;;;;;;;;;;;20.40;49.20;;;;;;1517993;77;798;-59
2023/03/10 07:52:39;;;;;;;;;;;20.40;49.20;;;;;;1520506;77;1387;-59
2023/03/10 07:54:41;;;;;;;;;;;20.40;49.20;;;;;;1531214;77;678;-60
2023/03/10 07:56:42;;;;;;;;;;;20.40;49.10;;;;;;1514445;77;692;-59
2023/03/10 07:58:44;;;;;;;;;;;20.40;49.10;;;;;;1515240;77;950;-59
2023/03/10 08:00:46;;;;;;;;;;;20.40;49.10;;;;;;1524809;77;1938;-60
2023/03/10 08:02:48;;;;;;;;;;;20.40;49.20;;;;;;1530922;77;1140;-59
2023/03/10 08:04:51;;;;;;;;;;;21.00;49.50;;;;;;1529665;77;792;-61
2023/03/10 08:06:53;;;;;;;;;;;20.60;49.30;;;;;;1518060;77;1309;-60
2023/03/10 08:08:55;;;;;;;;;;;20.40;49.20;;;;;;1526946;77;736;-60
2023/03/10 08:11:00;;;;;;;;;;;20.40;49.20;;;;;;1527683;77;699;-60
2023/03/10 08:13:02;;;;;;;;;;;20.40;49.20;;;;;;1515519;77;1136;-59
2023/03/10 08:15:05;;;;;;;;;;;20.40;49.20;;;;;;1520987;77;638;-60
2023/03/10 08:17:07;;;;;;;;;;;20.40;49.20;;;;;;1517429;77;776;-61
2023/03/10 08:19:09;;;;;;;;;;;20.40;49.20;;;;;;1520746;77;904;-60
2023/03/10 08:21:11;;;;;;;;;;;20.40;49.20;;;;;;1522326;77;2225;-60
2023/03/10 08:23:12;;;;;;;;;;;20.40;49.20;;;;;;1518136;77;708;-59
2023/03/10 08:25:14;;;;;;;;;;;20.40;49.20;;;;;;1512900;77;759;-59
2023/03/10 08:27:16;;;;;;;;;;;20.40;49.20;;;;;;1521183;77;732;-59
2023/03/10 08:29:18;;;;;;;;;;;20.40;49.20;;;;;;1523334;77;788;-61
2023/03/10 08:31:20;;;;;;;;;;;20.30;49.20;;;;;;1530247;77;1147;-60
2023/03/10 08:33:22;;;;;;;;;;;20.40;49.20;;;;;;1524587;77;813;-60
2023/03/10 08:35:24;;;;;;;;;;;20.40;49.20;;;;;;1514038;77;1435;-61
2023/03/10 08:37:26;;;;;;;;;;;20.40;49.20;;;;;;1521942;77;787;-59
2023/03/10 08:39:28;;;;;;;;;;;20.40;49.20;;;;;;1525033;77;711;-59
2023/03/10 08:41:31;;;;;;;;;;;20.40;49.20;;;;;;1517760;77;1938;-58
2023/03/10 08:43:33;;;;;;;;;;;20.40;49.20;;;;;;1517465;77;696;-60
2023/03/10 08:45:35;;;;;;;;;;;20.40;49.20;;;;;;1526508;77;710;-59
2023/03/10 08:47:36;;;;;;;;;;;20.40;49.20;;;;;;1504733;77;947;-59
2023/03/10 08:49:38;;;;;;;;;;;20.40;49.20;;;;;;1509781;77;1397;-58
2023/03/10 08:51:40;;;;;;;;;;;20.40;49.20;;;;;;1517007;77;1171;-58
2023/03/10 08:53:42;;;;;;;;;;;20.40;49.20;;;;;;1521243;77;762;-58
2023/03/10 08:55:44;;;;;;;;;;;20.40;49.20;;;;;;1522753;77;810;-60
2023/03/10 08:57:46;;;;;;;;;;;20.40;49.20;;;;;;1512727;77;812;-59
2023/03/10 08:59:50;;;;;;;;;;;20.40;49.20;;;;;;1531538;77;731;-60
2023/03/10 09:01:52;;;;;;;;;;;20.40;49.10;;;;;;1521839;77;1911;-59
2023/03/10 09:03:54;;;;;;;;;;;20.40;49.20;;;;;;1522144;77;1707;-60
2023/03/10 09:05:55;;;;;;;;;;;20.40;49.10;;;;;;1515084;77;773;-58
2023/03/10 09:07:57;;;;;;;;;;;20.40;49.10;;;;;;1514715;77;791;-58
2023/03/10 09:09:59;;;;;;;;;;;20.40;49.20;;;;;;1512515;77;790;-58
2023/03/10 09:12:01;;;;;;;;;;;20.40;49.20;;;;;;1514396;77;1123;-61
2023/03/10 09:14:03;;;;;;;;;;;20.40;49.20;;;;;;1507765;77;817;-59
2023/03/10 09:16:08;;;;;;;;;;;20.40;49.20;;;;;;1515421;77;1485;-60
2023/03/10 09:18:09;;;;;;;;;;;20.40;49.20;;;;;;1501673;77;1698;-59
2023/03/10 09:20:11;;;;;;;;;;;20.40;49.20;;;;;;1521278;77;768;-60
2023/03/10 09:22:13;;;;;;;;;;;20.40;49.20;;;;;;1512216;77;1941;-60
2023/03/10 09:24:16;;;;;;;;;;;20.40;49.20;;;;;;1515646;77;739;-60
2023/03/10 09:26:19;;;;;;;;;;;20.40;49.20;;;;;;1521004;77;722;-59
2023/03/10 09:28:21;;;;;;;;;;;20.40;49.20;;;;;;1523488;77;800;-61
2023/03/10 09:30:23;;;;;;;;;;;20.40;49.20;;;;;;1519525;77;1327;-59
2023/03/10 09:32:24;;;;;;;;;;;20.30;49.20;;;;;;1518583;77;1155;-60
2023/03/10 09:34:28;;;;;;;;;;;20.40;49.20;;;;;;1516372;77;697;-60
2023/03/10 09:36:30;;;;;;;;;;;20.40;49.20;;;;;;1523449;77;1761;-58
2023/03/10 09:38:32;;;;;;;;;;;20.40;49.20;;;;;;1508471;77;763;-58
2023/03/10 09:40:34;;;;;;;;;;;20.40;49.20;;;;;;1500754;77;761;-61
2023/03/10 09:42:42;;;;;;;;;;;20.40;49.20;;;;;;1510887;77;1951;-58
2023/03/10 09:44:46;;;;;;;;;;;20.40;49.20;;;;;;1507824;78;1523;-59
2023/03/10 09:46:49;;;;;;;;;;;20.40;49.20;;;;;;1504594;78;619;-58
2023/03/10 09:49:02;;;;;;;;;;;20.40;49.20;;;;;;1506685;77;1889;-59
2023/03/10 09:51:05;;;;;;;;;;;20.40;49.20;;;;;;1514424;77;2079;-60
2023/03/10 09:53:15;;;;;;;;;;;20.40;49.20;;;;;;1509073;77;1663;-59
2023/03/10 09:55:19;;;;;;;;;;;20.40;49.20;;;;;;1506886;77;780;-60
2023/03/10 09:57:21;;;;;;;;;;;20.40;49.20;;;;;;1526194;77;783;-60
2023/03/10 09:59:37;;;;;;;;;;;20.40;49.20;;;;;;1520459;77;1523;-61
2023/03/10 10:01:43;;;;;;;;;;;20.40;49.20;;;;;;1513079;77;1941;-61
2023/03/10 10:03:45;;;;;;;;;;;20.40;49.10;;;;;;1509399;77;2000;-60
2023/03/10 10:05:48;;;;;;;;;;;20.40;49.20;;;;;;1522058;77;1767;-61
2023/03/10 10:07:52;;;;;;;;;;;20.30;49.20;;;;;;1505604;77;1858;-57
2023/03/10 10:09:58;;;;;;;;;;;20.40;49.10;;;;;;1526849;77;758;-61
2023/03/10 10:12:02;;;;;;;;;;;20.40;49.20;;;;;;1511544;77;2099;-58
2023/03/10 10:14:11;;;;;;;;;;;20.40;49.20;;;;;;1507198;77;1957;-60
2023/03/10 10:16:21;;;;;;;;;;;20.40;49.20;;;;;;1506952;77;1849;-62
2023/03/10 10:18:41;;;;;;;;;;;20.40;49.10;;;;;;1509967;77;726;-61
2023/03/10 10:20:44;;;;;;;;;;;20.40;49.10;;;;;;1517957;77;2024;-59
2023/03/10 10:22:46;;;;;;;;;;;20.30;49.10;;;;;;1512807;77;1949;-57
2023/03/10 10:24:52;;;;;;;;;;;20.40;49.10;;;;;;1506765;77;691;-59
2023/03/10 10:26:55;;;;;;;;;;;20.30;49.10;;;;;;1492341;78;1719;-59
2023/03/10 10:28:57;;;;;;;;;;;20.40;49.10;;;;;;1507249;77;739;-59
2023/03/10 10:31:12;;;;;;;;;;;20.30;49.10;;;;;;1513428;77;768;-60
2023/03/10 10:33:15;;;;;;;;;;;20.40;48.90;;;;;;1519787;77;781;-61
2023/03/10 10:35:18;;;;;;;;;;;20.30;48.90;;;;;;1510137;77;714;-59
2023/03/10 10:37:27;;;;;;;;;;;20.40;49.00;;;;;;1509867;77;2213;-60
2023/03/10 10:39:37;;;;;;;;;;;20.30;49.00;;;;;;1515175;77;709;-59
2023/03/10 10:41:39;;;;;;;;;;;20.30;49.00;;;;;;1513130;77;1963;-58
2023/03/10 10:43:42;;;;;;;;;;;20.30;49.00;;;;;;1526207;77;946;-61
2023/03/10 10:45:44;;;;;;;;;;;20.40;49.00;;;;;;1526651;77;690;-59
2023/03/10 10:47:48;;;;;;;;;;;20.30;49.00;;;;;;1517540;77;734;-59
2023/03/10 10:49:49;;;;;;;;;;;20.30;48.90;;;;;;1524424;77;893;-61
2023/03/10 10:52:01;;;;;;;;;;;20.40;48.90;;;;;;1521320;77;1176;-58
2023/03/10 10:54:20;;;;;;;;;;;20.40;48.90;;;;;;1514318;77;937;-60
2023/03/10 10:56:27;;;;;;;;;;;20.40;48.80;;;;;;1521039;77;1679;-60
2023/03/10 10:58:36;;;;;;;;;;;20.40;48.90;;;;;;1522931;77;1597;-59
2023/03/10 11:00:38;;;;;;;;;;;20.30;48.90;;;;;;1515863;77;2069;-60
2023/03/10 11:02:40;;;;;;;;;;;20.30;49.00;;;;;;1520678;77;1949;-62
2023/03/10 11:04:43;;;;;;;;;;;20.40;48.90;;;;;;1525382;77;744;-60
2023/03/10 11:06:45;;;;;;;;;;;20.30;48.90;;;;;;1524146;77;745;-59
2023/03/10 11:08:49;;;;;;;;;;;20.30;48.90;;;;;;1531041;77;1522;-59
2023/03/10 11:10:53;;;;;;;;;;;20.40;48.90;;;;;;1516642;77;1640;-59
2023/03/10 11:12:56;;;;;;;;;;;20.40;48.90;;;;;;1522741;77;1158;-61
2023/03/10 11:15:00;;;;;;;;;;;20.40;48.90;;;;;;1521620;77;698;-58
2023/03/10 11:17:07;;;;;;;;;;;20.30;48.90;;;;;;1518082;77;1247;-58
2023/03/10 11:19:11;;;;;;;;;;;20.40;48.90;;;;;;1523939;77;739;-58
2023/03/10 11:21:13;;;;;;;;;;;20.30;48.80;;;;;;1523954;77;1890;-60
2023/03/10 11:23:17;;;;;;;;;;;20.40;48.80;;;;;;1529860;77;1919;-61
2023/03/10 11:25:21;;;;;;;;;;;20.30;48.90;;;;;;1518083;77;724;-59
2023/03/10 11:27:41;;;;;;;;;;;20.40;48.90;;;;;;1533068;77;674;-60
2023/03/10 11:29:54;;;;;;;;;;;20.30;48.90;;;;;;1525812;77;709;-60
2023/03/10 11:32:09;;;;;;;;;;;20.30;48.90;;;;;;1525606;77;1371;-60
2023/03/10 11:34:13;;;;;;;;;;;20.30;48.90;;;;;;1524436;77;918;-58
2023/03/10 11:36:31;;;;;;;;;;;20.30;48.90;;;;;;1521917;77;729;-60
2023/03/10 11:38:37;;;;;;;;;;;20.30;48.90;;;;;;1527468;77;1958;-59
2023/03/10 11:40:41;;;;;;;;;;;20.30;48.90;;;;;;1517061;77;813;-62
2023/03/10 11:42:51;;;;;;;;;;;20.30;48.90;;;;;;1520081;77;1939;-59
2023/03/10 11:44:57;;;;;;;;;;;20.30;48.90;;;;;;1532509;77;1078;-58
2023/03/10 11:47:04;;;;;;;;;;;20.30;48.90;;;;;;1511174;77;1473;-59
2023/03/10 11:49:07;;;;;;;;;;;20.30;48.90;;;;;;1513257;77;781;-60
2023/03/10 11:51:10;;;;;;;;;;;20.30;48.90;;;;;;1526465;77;1503;-60
2023/03/10 11:53:13;;;;;;;;;;;20.30;48.90;;;;;;1506943;77;1844;-60
2023/03/10 11:55:17;;;;;;;;;;;20.30;48.90;;;;;;1515632;77;767;-60
2023/03/10 11:57:20;;;;;;;;;;;20.30;48.90;;;;;;1515676;77;1615;-59
2023/03/10 11:59:22;;;;;;;;;;;20.30;48.80;;;;;;1522400;77;783;-59
2023/03/10 12:01:29;;;;;;;;;;;20.30;48.80;;;;;;1526002;77;1165;-58
2023/03/10 12:03:33;;;;;;;;;;;20.30;48.80;;;;;;1517914;77;1932;-60
2023/03/10 12:05:42;;;;;;;;;;;20.30;48.80;;;;;;1520835;77;1524;-59
2023/03/10 12:07:45;;;;;;;;;;;20.30;48.80;;;;;;1524084;77;1839;-59
2023/03/10 12:09:50;;;;;;;;;;;20.30;48.80;;;;;;1521282;77;720;-58
2023/03/10 12:11:52;;;;;;;;;;;20.30;48.70;;;;;;1524278;77;1131;-58
2023/03/10 12:13:58;;;;;;;;;;;20.30;48.90;;;;;;1523395;77;833;-60